createdAt,value
2022-08-18T00:02:06.090Z,100570.53
2022-08-18T00:04:45.263Z,100570.50
2022-08-18T00:07:22.972Z,100558.28
2022-08-18T00:09:51.705Z,100560.97
2022-08-18T00:12:26.795Z,100560.38
2022-08-18T00:14:56.627Z,100569.22
2022-08-18T00:17:24.735Z,100570.03
2022-08-18T00:19:52.700Z,100572.94
2022-08-18T00:22:22.171Z,100578.09
2022-08-18T00:24:55.489Z,100565.50
2022-08-18T00:27:28.542Z,100564.78
2022-08-18T00:29:58.272Z,100568.84
2022-08-18T00:32:30.272Z,100565.66
2022-08-18T00:34:58.012Z,100569.59
2022-08-18T00:37:25.557Z,100558.50
2022-08-18T00:39:54.721Z,100551.88
2022-08-18T00:42:31.111Z,100543.19
2022-08-18T00:45:05.259Z,100547.34
2022-08-18T00:47:52.170Z,100543.13
2022-08-18T00:50:28.393Z,100536.53
2022-08-18T00:53:39.479Z,100546.72
2022-08-18T00:56:13.682Z,100554.94
2022-08-18T00:58:46.981Z,100548.03
2022-08-18T01:01:17.079Z,100550.53
2022-08-18T01:03:53.978Z,100558.56
2022-08-18T01:06:36.921Z,100552.56
2022-08-18T01:09:04.979Z,100552.69
2022-08-18T01:11:38.296Z,100543.00
2022-08-18T01:14:09.364Z,100553.34
2022-08-18T01:16:56.739Z,100553.28
2022-08-18T01:19:45.696Z,100569.41
2022-08-18T01:22:22.920Z,100576.31
2022-08-18T01:25:11.240Z,100581.28
2022-08-18T01:27:41.933Z,100576.69
2022-08-18T01:30:13.568Z,100590.84
2022-08-18T01:32:42.025Z,100573.50
2022-08-18T01:35:11.961Z,100567.09
2022-08-18T01:37:41.462Z,100563.16
2022-08-18T01:41:24.656Z,100561.91
2022-08-18T01:43:05.262Z,100566.09
2022-08-18T01:45:33.532Z,100548.13
2022-08-18T01:48:01.693Z,100541.69
2022-08-18T01:50:30.365Z,100537.91
2022-08-18T01:52:57.990Z,100532.44
2022-08-18T01:55:28.449Z,100539.19
2022-08-18T01:57:56.371Z,100547.28
2022-08-18T02:00:25.531Z,100553.16
2022-08-18T02:03:02.101Z,100568.75
2022-08-18T02:05:36.989Z,100573.25
2022-08-18T02:08:06.456Z,100579.63
2022-08-18T02:10:35.188Z,100585.25
2022-08-18T02:13:02.874Z,100589.06
2022-08-18T02:15:30.637Z,100591.06
2022-08-18T02:17:58.236Z,100603.78
2022-08-18T02:20:26.064Z,100614.41
2022-08-18T02:22:53.590Z,100620.41
2022-08-18T02:25:21.491Z,100628.97
2022-08-18T02:27:49.514Z,100627.03
2022-08-18T02:30:19.508Z,100642.81
2022-08-18T02:32:47.225Z,100638.38
2022-08-18T02:35:15.297Z,100634.16
2022-08-18T02:37:48.226Z,100606.47
2022-08-18T02:40:17.109Z,100614.13
2022-08-18T02:42:46.441Z,100636.06
2022-08-18T02:45:14.921Z,100664.47
2022-08-18T02:47:44.255Z,100705.72
2022-08-18T02:50:13.831Z,100745.88
2022-08-18T02:52:41.624Z,100783.81
2022-08-18T02:55:11.039Z,100745.78
2022-08-18T02:57:43.572Z,100730.84
2022-08-18T03:00:14.587Z,100789.47
2022-08-18T03:02:52.166Z,100779.69
2022-08-18T03:05:20.344Z,100791.28
2022-08-18T03:07:47.972Z,100793.31
2022-08-18T03:10:32.760Z,100783.13
2022-08-18T03:13:02.691Z,100741.97
2022-08-18T03:15:30.838Z,100694.31
2022-08-18T03:17:58.785Z,100676.22
2022-08-18T03:20:30.100Z,100656.88
2022-08-18T03:23:05.438Z,100626.59
2022-08-18T03:25:43.993Z,100655.06
2022-08-18T03:28:12.372Z,100667.91
2022-08-18T03:30:40.440Z,100619.28
2022-08-18T03:33:30.574Z,100490.13
2022-08-18T03:36:09.929Z,100368.31
2022-08-18T03:38:37.843Z,100397.09
2022-08-18T03:41:08.944Z,100364.19
2022-08-18T03:43:51.005Z,100356.38
2022-08-18T03:46:22.046Z,100360.88
2022-08-18T03:48:50.508Z,100355.69
2022-08-18T03:51:26.792Z,100375.44
2022-08-18T03:54:00.676Z,100384.03
2022-08-18T03:56:35.646Z,100384.94
2022-08-18T03:59:12.199Z,100386.91
2022-08-18T04:01:42.476Z,100382.50
2022-08-18T04:04:13.689Z,100398.75
2022-08-18T04:06:50.461Z,100407.91
2022-08-18T04:09:19.125Z,100403.19
2022-08-18T04:11:47.122Z,100405.81
2022-08-18T04:14:20.448Z,100385.69
2022-08-18T04:16:49.091Z,100380.50
2022-08-18T04:19:23.138Z,100365.22
2022-08-18T04:21:58.223Z,100350.16
2022-08-18T04:24:31.154Z,100344.13
2022-08-18T04:27:02.006Z,100342.41
2022-08-18T04:29:29.956Z,100318.44
2022-08-18T04:32:01.694Z,100328.84
2022-08-18T04:34:29.411Z,100343.66
2022-08-18T04:36:57.562Z,100356.56
2022-08-18T04:39:25.830Z,100371.72
2022-08-18T04:41:53.506Z,100372.75
2022-08-18T04:44:22.197Z,100375.44
2022-08-18T04:46:52.507Z,100397.59
2022-08-18T04:49:26.063Z,100392.56
2022-08-18T04:52:34.362Z,100395.47
2022-08-18T04:55:02.021Z,100435.41
2022-08-18T04:57:34.930Z,100457.59
2022-08-18T05:00:06.386Z,100471.88
2022-08-18T05:02:35.058Z,100472.25
2022-08-18T05:05:04.246Z,100474.41
2022-08-18T05:07:32.955Z,100480.16
2022-08-18T05:10:00.455Z,100488.28
2022-08-18T05:12:29.160Z,100477.50
2022-08-18T05:14:57.428Z,100456.25
2022-08-18T05:17:30.196Z,100456.38
2022-08-18T05:20:00.042Z,100463.28
2022-08-18T05:22:30.496Z,100468.97
2022-08-18T05:25:00.937Z,100477.66
2022-08-18T05:27:33.454Z,100477.78
2022-08-18T05:30:03.202Z,100472.84
2022-08-18T05:32:47.262Z,100475.16
2022-08-18T05:35:23.505Z,100473.56
2022-08-18T05:38:20.934Z,100480.41
2022-08-18T05:41:06.439Z,100476.09
2022-08-18T05:43:35.833Z,100482.53
2022-08-18T05:46:10.522Z,100497.94
2022-08-18T05:48:43.080Z,100505.41
2022-08-18T05:51:18.516Z,100502.94
2022-08-18T05:54:05.782Z,100513.69
2022-08-18T05:56:49.233Z,100522.56
2022-08-18T05:59:22.738Z,100532.53
2022-08-18T06:01:54.459Z,100542.13
2022-08-18T06:04:46.684Z,100561.00
2022-08-18T06:07:19.721Z,100567.03
2022-08-18T06:09:54.248Z,100559.91
2022-08-18T06:12:47.134Z,100552.97
2022-08-18T06:15:43.626Z,100562.03
2022-08-18T06:18:55.249Z,100540.22
2022-08-18T06:21:28.730Z,100535.00
2022-08-18T06:24:00.861Z,100562.97
2022-08-18T06:27:02.097Z,100584.34
2022-08-18T06:29:47.839Z,100593.06
2022-08-18T06:32:37.018Z,100588.50
2022-08-18T06:35:18.356Z,100585.84
2022-08-18T06:38:20.199Z,100589.72
2022-08-18T06:40:49.302Z,100594.72
2022-08-18T06:43:18.134Z,100583.38
2022-08-18T06:45:52.102Z,100578.69
2022-08-18T06:48:31.840Z,100583.50
2022-08-18T06:51:03.015Z,100587.44
2022-08-18T06:53:55.670Z,100593.13
2022-08-18T06:56:41.193Z,100581.16
2022-08-18T06:59:23.607Z,100564.91
2022-08-18T07:02:02.864Z,100538.75
2022-08-18T07:04:57.922Z,100577.69
2022-08-18T07:07:40.529Z,100621.03
2022-08-18T07:10:34.072Z,100637.63
2022-08-18T07:13:27.747Z,100635.84
2022-08-18T07:16:40.269Z,100619.16
2022-08-18T07:19:20.578Z,100736.63
2022-08-18T07:22:03.847Z,100817.78
2022-08-18T07:24:44.390Z,100818.28
2022-08-18T07:27:18.635Z,100820.44
2022-08-18T07:30:20.931Z,100821.09
2022-08-18T07:32:55.411Z,100803.13
2022-08-18T07:36:16.590Z,100768.50
2022-08-18T07:38:54.852Z,100774.66
2022-08-18T07:41:33.340Z,100773.13
2022-08-18T07:44:16.918Z,100742.66
2022-08-18T07:47:02.405Z,100729.19
2022-08-18T07:49:36.826Z,100688.44
2022-08-18T07:52:35.938Z,100599.53
2022-08-18T07:55:28.846Z,100513.22
2022-08-18T07:58:15.845Z,100459.72
2022-08-18T08:01:00.029Z,100431.84
2022-08-18T08:03:32.135Z,100400.19
2022-08-18T08:06:10.256Z,100447.91
2022-08-18T08:08:44.383Z,100497.03
2022-08-18T08:11:17.847Z,100478.81
2022-08-18T08:14:26.135Z,100420.13
2022-08-18T08:17:07.992Z,100402.81
2022-08-18T08:20:01.325Z,100394.03
2022-08-18T08:22:38.769Z,100394.53
2022-08-18T08:25:44.514Z,100369.06
2022-08-18T08:28:37.115Z,100349.59
2022-08-18T08:34:32.778Z,100389.97
2022-08-18T08:37:05.167Z,100391.63
2022-08-18T08:39:42.239Z,100390.81
2022-08-18T08:42:31.844Z,100391.16
2022-08-18T08:45:09.217Z,100407.72
2022-08-18T08:47:43.472Z,100427.22
2022-08-18T08:50:16.864Z,100407.19
2022-08-18T08:53:08.841Z,100410.69
2022-08-18T08:55:42.302Z,100397.91
2022-08-18T08:58:19.326Z,100387.59
2022-08-18T09:00:49.182Z,100371.78
2022-08-18T09:03:47.421Z,100340.06
2022-08-18T09:06:55.197Z,100314.66
2022-08-18T09:09:28.497Z,100324.19
2022-08-18T09:12:19.693Z,100338.94
2022-08-18T09:15:09.785Z,100331.34
2022-08-18T09:18:05.163Z,100349.22
2022-08-18T09:20:36.026Z,100362.66
2022-08-18T09:23:31.010Z,100362.66
2022-08-18T09:26:39.325Z,100381.31
2022-08-18T09:29:45.666Z,100395.59
2022-08-18T09:32:19.326Z,100380.72
2022-08-18T09:35:05.323Z,100396.59
2022-08-18T09:38:24.085Z,100385.38
2022-08-18T09:41:25.277Z,100378.38
2022-08-18T09:43:56.261Z,100393.59
2022-08-18T09:46:51.826Z,100392.59
2022-08-18T09:49:22.528Z,100413.91
2022-08-18T09:51:52.856Z,100415.00
2022-08-18T09:54:29.564Z,100405.34
2022-08-18T09:57:19.598Z,100429.03
2022-08-18T09:59:49.166Z,100461.22
2022-08-18T10:02:28.537Z,100427.88
2022-08-18T10:05:21.278Z,100377.44
2022-08-18T10:08:03.957Z,100340.00
2022-08-18T10:11:01.646Z,100365.94
2022-08-18T10:13:51.572Z,100376.38
2022-08-18T10:16:31.159Z,100380.75
2022-08-18T10:19:48.233Z,100423.97
2022-08-18T10:22:40.313Z,100502.44
2022-08-18T10:27:59.646Z,100715.00
2022-08-18T10:30:32.621Z,100794.50
2022-08-18T10:33:17.787Z,100503.78
2022-08-18T10:35:57.779Z,100561.50
2022-08-18T10:38:37.052Z,100550.03
2022-08-18T10:41:21.400Z,100548.38
2022-08-18T10:43:55.325Z,100504.78
2022-08-18T10:46:31.905Z,100477.94
2022-08-18T10:49:04.377Z,100447.09
2022-08-18T10:51:59.875Z,100421.16
2022-08-18T10:54:51.141Z,100411.28
2022-08-18T10:57:28.964Z,100401.03
2022-08-18T11:00:13.861Z,100389.25
2022-08-18T11:03:02.731Z,100375.16
2022-08-18T11:05:36.207Z,100415.56
2022-08-18T11:08:15.716Z,100428.81
2022-08-18T11:11:33.147Z,100417.63
2022-08-18T11:14:24.238Z,100432.34
2022-08-18T11:17:14.073Z,100425.34
2022-08-18T11:19:46.869Z,100396.97
2022-08-18T11:22:35.678Z,100394.97
2022-08-18T11:25:19.406Z,100384.88
2022-08-18T11:27:49.153Z,100349.75
2022-08-18T11:30:19.885Z,100342.41
2022-08-18T11:33:02.696Z,100341.91
2022-08-18T11:35:45.347Z,100314.94
2022-08-18T11:38:20.653Z,100205.97
2022-08-18T11:41:11.168Z,100141.69
2022-08-18T11:46:38.925Z,100192.28
2022-08-18T11:49:26.218Z,100241.38
2022-08-18T11:52:25.072Z,100240.47
2022-08-18T11:55:14.555Z,100262.03
2022-08-18T11:57:59.217Z,100271.06
2022-08-18T12:00:43.307Z,100257.84
2022-08-18T12:03:21.846Z,100272.53
2022-08-18T12:06:09.398Z,100268.41
2022-08-18T12:08:57.963Z,100290.13
2022-08-18T12:11:51.264Z,100300.81
2022-08-18T12:14:30.345Z,100300.81
2022-08-18T12:17:01.456Z,100316.06
2022-08-18T12:19:31.273Z,100339.06
2022-08-18T12:22:13.808Z,100343.22
2022-08-18T12:24:41.527Z,100376.22
2022-08-18T12:27:21.687Z,100382.84
2022-08-18T12:29:51.771Z,100394.72
2022-08-18T12:32:41.768Z,100400.16
2022-08-18T12:35:13.841Z,100405.38
2022-08-18T12:38:11.463Z,100419.94
2022-08-18T12:40:33.095Z,100424.28
2022-08-18T12:43:01.090Z,100418.53
2022-08-18T12:45:31.148Z,100434.94
2022-08-18T12:48:04.267Z,100436.63
2022-08-18T12:50:36.274Z,100448.69
2022-08-18T12:53:05.461Z,100445.06
2022-08-18T12:55:37.652Z,100448.88
2022-08-18T12:58:12.139Z,100472.63
2022-08-18T13:00:41.137Z,100489.97
2022-08-18T13:03:09.369Z,100504.31
2022-08-18T13:05:38.180Z,100511.47
2022-08-18T13:08:13.962Z,100511.84
2022-08-18T13:11:00.351Z,100507.97
2022-08-18T13:13:44.014Z,100511.69
2022-08-18T13:16:16.397Z,100503.69
2022-08-18T13:18:57.897Z,100522.78
2022-08-18T13:21:27.166Z,100518.50
2022-08-18T13:24:07.438Z,100510.53
2022-08-18T13:26:42.030Z,100506.81
2022-08-18T13:29:10.445Z,100518.25
2022-08-18T13:31:39.000Z,100515.88
2022-08-18T13:34:11.897Z,100520.34
2022-08-18T13:36:46.393Z,100521.44
2022-08-18T13:39:22.146Z,100507.78
2022-08-18T13:41:52.932Z,100504.09
2022-08-18T13:44:22.496Z,100507.53
2022-08-18T13:46:56.006Z,100498.34
2022-08-18T13:49:29.954Z,100498.38
2022-08-18T13:52:00.969Z,100495.13
2022-08-18T13:54:35.348Z,100507.22
2022-08-18T13:57:05.007Z,100486.94
2022-08-18T13:59:35.140Z,100478.69
2022-08-18T14:02:08.407Z,100487.38
2022-08-18T14:04:38.541Z,100473.88
2022-08-18T14:07:10.963Z,100480.13
2022-08-18T14:09:40.124Z,100479.28
2022-08-18T14:12:27.121Z,100475.06
2022-08-18T14:14:57.697Z,100473.16
2022-08-18T14:17:26.885Z,100480.16
2022-08-18T14:20:14.946Z,100474.91
2022-08-18T14:23:02.609Z,100475.31
2022-08-18T14:25:50.513Z,100480.25
2022-08-18T14:28:19.651Z,100472.63
2022-08-18T14:30:55.218Z,100461.44
2022-08-18T14:33:51.147Z,100467.28
2022-08-18T14:36:14.396Z,100466.94
2022-08-18T14:38:42.276Z,100469.00
2022-08-18T14:41:13.287Z,100464.41
2022-08-18T14:44:10.956Z,100454.25
2022-08-18T14:46:32.759Z,100458.34
2022-08-18T14:49:03.982Z,100468.22
2022-08-18T14:51:33.720Z,100470.63
2022-08-18T14:54:02.116Z,100473.59
2022-08-18T14:56:33.250Z,100467.59
2022-08-18T14:59:07.744Z,100476.47
2022-08-18T15:01:42.421Z,100471.88
2022-08-18T15:04:18.714Z,100471.38
2022-08-18T15:06:55.743Z,100472.84
2022-08-18T15:09:27.170Z,100468.16
2022-08-18T15:11:58.085Z,100475.94
2022-08-18T15:14:33.056Z,100480.91
2022-08-18T15:17:11.986Z,100473.75
2022-08-18T15:20:00.456Z,100488.53
2022-08-18T15:22:47.911Z,100485.63
2022-08-18T15:25:54.948Z,100488.16
2022-08-18T15:28:27.294Z,100487.47
2022-08-18T15:33:42.836Z,100474.03
2022-08-18T15:36:10.771Z,100472.16
2022-08-18T15:38:43.940Z,100474.34
2022-08-18T15:41:28.285Z,100464.53
2022-08-18T15:43:58.963Z,100470.69
2022-08-18T15:46:27.500Z,100460.53
2022-08-18T15:48:55.844Z,100456.66
2022-08-18T15:51:23.747Z,100456.41
2022-08-18T15:53:52.834Z,100455.31
2022-08-18T15:56:25.832Z,100455.19
2022-08-18T15:58:53.920Z,100458.56
2022-08-18T16:01:32.141Z,100450.91
2022-08-18T16:04:03.133Z,100458.78
2022-08-18T16:06:33.412Z,100459.72
2022-08-18T16:09:04.871Z,100456.91
2022-08-18T16:11:32.527Z,100453.63
2022-08-18T16:14:00.535Z,100450.81
2022-08-18T16:16:35.534Z,100461.94
2022-08-18T16:19:07.694Z,100455.41
2022-08-18T16:21:39.947Z,100456.66
2022-08-18T16:24:08.426Z,100472.75
2022-08-18T16:26:36.291Z,100460.97
2022-08-18T16:29:05.103Z,100467.84
2022-08-18T16:31:33.766Z,100462.06
2022-08-18T16:34:01.771Z,100467.81
2022-08-18T16:36:30.117Z,100463.97
2022-08-18T16:38:58.418Z,100453.50
2022-08-18T16:41:27.055Z,100446.59
2022-08-18T16:43:56.290Z,100432.38
2022-08-18T16:46:27.196Z,100432.63
2022-08-18T16:48:56.381Z,100430.50
2022-08-18T16:51:26.217Z,100420.50
2022-08-18T16:53:54.524Z,100412.53
2022-08-18T16:56:25.575Z,100409.63
2022-08-18T16:59:12.253Z,100393.97
2022-08-18T17:02:00.138Z,100372.13
2022-08-18T17:04:33.691Z,100384.38
2022-08-18T17:07:04.955Z,100372.97
2022-08-18T17:09:33.936Z,100372.94
2022-08-18T17:12:02.973Z,100369.91
2022-08-18T17:14:32.469Z,100384.47
2022-08-18T17:17:00.746Z,100393.84
2022-08-18T17:19:33.725Z,100392.94
2022-08-18T17:22:05.378Z,100391.38
2022-08-18T17:24:33.557Z,100393.88
2022-08-18T17:27:27.040Z,100377.84
2022-08-18T17:30:12.113Z,100365.38
2022-08-18T17:32:50.776Z,100363.78
2022-08-18T17:35:28.656Z,100360.25
2022-08-18T17:38:32.517Z,100368.91
2022-08-18T17:41:01.809Z,100351.66
2022-08-18T17:43:33.114Z,100358.56
2022-08-18T17:46:06.826Z,100341.94
2022-08-18T17:48:42.412Z,100358.75
2022-08-18T17:51:43.402Z,100382.97
2022-08-18T17:54:19.239Z,100383.44
2022-08-18T17:56:53.314Z,100382.88
2022-08-18T17:59:46.460Z,100389.94
2022-08-18T18:02:29.449Z,100401.16
2022-08-18T18:05:03.771Z,100421.44
2022-08-18T18:07:38.374Z,100420.81
2022-08-18T18:10:14.228Z,100434.63
2022-08-18T18:12:41.877Z,100444.16
2022-08-18T18:15:12.984Z,100423.69
2022-08-18T18:17:43.403Z,100435.09
2022-08-18T18:20:16.700Z,100419.41
2022-08-18T18:22:45.908Z,100396.66
2022-08-18T18:25:29.749Z,100383.84
2022-08-18T18:28:02.553Z,100368.31
2022-08-18T18:30:31.928Z,100375.56
2022-08-18T18:33:03.299Z,100379.19
2022-08-18T18:35:55.018Z,100375.06
2022-08-18T18:38:35.131Z,100353.38
2022-08-18T18:41:06.801Z,100333.53
2022-08-18T18:43:35.798Z,100333.09
2022-08-18T18:46:06.287Z,100342.16
2022-08-18T18:48:51.790Z,100363.97
2022-08-18T18:51:43.901Z,100360.25
2022-08-18T18:54:33.402Z,100374.69
2022-08-18T18:57:04.264Z,100383.63
2022-08-18T19:02:49.380Z,100389.44
2022-08-18T19:05:21.635Z,100410.72
2022-08-18T19:08:02.354Z,100418.56
2022-08-18T19:10:30.238Z,100419.00
2022-08-18T19:13:03.443Z,100415.66
2022-08-18T19:15:37.716Z,100423.69
2022-08-18T19:18:26.065Z,100435.69
2022-08-18T19:22:01.629Z,100441.88
2022-08-18T19:24:02.888Z,100420.53
2022-08-18T19:26:51.537Z,100407.47
2022-08-18T19:29:25.800Z,100388.81
2022-08-18T19:32:08.342Z,100353.50
2022-08-18T19:34:51.562Z,100365.06
2022-08-18T19:37:31.460Z,100373.38
2022-08-18T19:40:12.432Z,100385.28
2022-08-18T19:42:44.680Z,100404.25
2022-08-18T19:45:40.938Z,100437.00
2022-08-18T19:48:23.829Z,100436.31
2022-08-18T19:50:56.584Z,100425.66
2022-08-18T19:53:59.655Z,100411.91
2022-08-18T19:56:58.063Z,100392.69
2022-08-18T20:00:11.674Z,100388.44
2022-08-18T20:02:44.203Z,100388.09
2022-08-18T20:05:40.014Z,100374.50
2022-08-18T20:08:26.583Z,100390.94
2022-08-18T20:11:14.302Z,100413.84
2022-08-18T20:13:44.619Z,100424.31
2022-08-18T20:16:12.078Z,100416.69
2022-08-18T20:18:49.114Z,100423.31
2022-08-18T20:21:17.293Z,100428.84
2022-08-18T20:24:05.034Z,100434.53
2022-08-18T20:26:36.005Z,100448.41
2022-08-18T20:29:39.477Z,100461.59
2022-08-18T20:32:20.564Z,100460.22
2022-08-18T20:34:51.815Z,100437.44
2022-08-18T20:37:27.427Z,100435.63
2022-08-18T20:39:55.653Z,100426.28
2022-08-18T20:42:23.259Z,100410.06
2022-08-18T20:44:59.000Z,100411.91
2022-08-18T20:47:42.051Z,100408.81
2022-08-18T20:50:21.829Z,100397.69
2022-08-18T20:53:08.914Z,100394.19
2022-08-18T20:56:32.358Z,100403.06
2022-08-18T20:59:20.050Z,100402.84
2022-08-18T21:02:03.332Z,100400.31
2022-08-18T21:04:33.953Z,100390.75
2022-08-18T21:07:11.872Z,100375.94
2022-08-18T21:09:50.521Z,100384.63
2022-08-18T21:12:24.322Z,100423.81
2022-08-18T21:14:54.501Z,100441.06
2022-08-18T21:17:26.602Z,100443.41
2022-08-18T21:20:04.870Z,100464.09
2022-08-18T21:22:34.033Z,100451.22
2022-08-18T21:25:02.625Z,100426.13
2022-08-18T21:27:40.532Z,100426.41
2022-08-18T21:30:22.122Z,100417.72
2022-08-18T21:32:50.414Z,100412.22
2022-08-18T21:35:28.390Z,100417.22
2022-08-18T21:38:06.224Z,100406.91
2022-08-18T21:40:48.117Z,100397.69
2022-08-18T21:43:52.250Z,100394.31
2022-08-18T21:46:26.336Z,100371.59
2022-08-18T21:48:56.393Z,100352.94
2022-08-18T21:51:49.675Z,100348.25
2022-08-18T21:54:22.299Z,100348.94
2022-08-18T21:57:21.796Z,100348.84
2022-08-18T22:00:23.598Z,100347.94
2022-08-18T22:03:11.152Z,100362.72
2022-08-18T22:05:58.181Z,100357.63
2022-08-18T22:08:31.038Z,100344.09
2022-08-18T22:12:00.902Z,100329.56
2022-08-18T22:14:36.066Z,100344.06
2022-08-18T22:17:35.911Z,100380.50
2022-08-18T22:20:43.020Z,100390.41
2022-08-18T22:23:32.071Z,100400.84
2022-08-18T22:26:22.380Z,100402.88
2022-08-18T22:28:55.206Z,100402.50
2022-08-18T22:31:25.915Z,100401.78
2022-08-18T22:34:00.164Z,100395.88
2022-08-18T22:36:32.363Z,100395.47
2022-08-18T22:39:01.096Z,100403.34
2022-08-18T22:41:29.021Z,100396.44
2022-08-18T22:43:58.308Z,100393.47
2022-08-18T22:46:26.033Z,100378.44
2022-08-18T22:48:54.137Z,100361.97
2022-08-18T22:51:25.411Z,100346.34
2022-08-18T22:53:53.923Z,100337.25
2022-08-18T22:56:22.770Z,100324.06
2022-08-18T22:59:13.449Z,100329.25
2022-08-18T23:01:46.456Z,100333.81
2022-08-18T23:04:16.088Z,100324.75
2022-08-18T23:06:51.486Z,100320.34
2022-08-18T23:09:23.073Z,100311.28
2022-08-18T23:11:52.901Z,100297.75
2022-08-18T23:14:20.984Z,100281.00
2022-08-18T23:16:49.752Z,100256.91
2022-08-18T23:19:19.319Z,100239.25
2022-08-18T23:21:48.470Z,100210.78
2022-08-18T23:24:17.862Z,100182.00
2022-08-18T23:26:46.294Z,100170.41
2022-08-18T23:29:14.447Z,100163.56
2022-08-18T23:31:44.046Z,100168.66
2022-08-18T23:34:14.832Z,100191.53
2022-08-18T23:36:45.787Z,100220.38
2022-08-18T23:39:14.860Z,100231.22
2022-08-18T23:41:42.906Z,100241.97
2022-08-18T23:44:13.458Z,100249.53
2022-08-18T23:46:44.580Z,100266.72
2022-08-18T23:49:14.909Z,100294.16
2022-08-18T23:51:46.266Z,100296.28
2022-08-18T23:54:17.906Z,100291.50
2022-08-18T23:56:46.474Z,100298.13
2022-08-18T23:59:15.582Z,100295.63
